Time;durP1;ratioP1;P1;durP2;ratioP2;P2;SDS_P1;SDS_P2;PMS_P1;PMS_P2;Temp;Humidity;BMP_temperature;BMP_pressure;BME280_temperature;BME280_humidity;BME280_pressure;Samples;Min_cycle;Max_cycle;Signal;HPM_P1;HPM_P2
2021/05/19 00:02:39;;;;;;;23.98;9.28;;;;;;;8.73;94.37;98279.98;2042369;87;20984;-63
2021/05/19 00:05:41;;;;;;;23.07;9.40;;;;;;;8.72;94.17;98280.45;2042148;87;21891;-64
2021/05/19 00:08:42;;;;;;;23.90;8.98;;;;;;;8.69;94.25;98274.09;2041891;87;21092;-63
2021/05/19 00:11:45;;;;;;;23.35;9.43;;;;;;;8.64;93.99;98273.07;2041800;87;20993;-63
2021/05/19 00:14:47;;;;;;;21.73;9.43;;;;;;;8.62;94.58;98274.95;2041995;87;21034;-64
2021/05/19 00:17:48;;;;;;;23.45;9.65;;;;;;;8.59;93.93;98274.29;2041958;87;21587;-63
2021/05/19 00:20:50;;;;;;;23.90;9.50;;;;;;;8.54;94.16;98269.35;2041824;87;21052;-63
2021/05/19 00:23:51;;;;;;;26.85;9.85;;;;;;;8.54;94.50;98282.90;2041793;87;21587;-63
2021/05/19 00:26:53;;;;;;;24.60;9.23;;;;;;;8.50;94.15;98279.61;2041891;87;21032;-63
2021/05/19 00:29:54;;;;;;;23.55;9.33;;;;;;;8.49;94.63;98287.08;2041883;87;21076;-63
2021/05/19 00:32:55;;;;;;;22.65;9.08;;;;;;;8.49;94.40;98279.23;2042248;87;21028;-63
2021/05/19 00:35:57;;;;;;;21.80;9.03;;;;;;;8.47;94.47;98283.73;2041852;87;21032;-63
2021/05/19 00:38:59;;;;;;;23.45;9.28;;;;;;;8.42;94.24;98277.90;2041824;87;21064;-64
2021/05/19 00:42:00;;;;;;;22.65;8.58;;;;;;;8.44;94.32;98285.20;2041868;87;21032;-64
2021/05/19 00:45:01;;;;;;;23.92;9.60;;;;;;;8.39;94.02;98284.17;2041881;87;21092;-63
2021/05/19 00:48:03;;;;;;;22.32;9.20;;;;;;;8.38;93.88;98282.97;2041723;87;21610;-64
2021/05/19 00:51:04;;;;;;;23.75;8.73;;;;;;;8.36;93.51;98284.36;2041872;87;21355;-63
2021/05/19 00:54:06;;;;;;;22.87;9.20;;;;;;;8.35;93.94;98281.37;2041858;87;21089;-63
2021/05/19 00:57:08;;;;;;;24.32;8.70;;;;;;;8.36;93.80;98284.81;2041778;87;21085;-63
2021/05/19 01:00:09;;;;;;;23.65;9.08;;;;;;;8.39;93.78;98291.16;2022796;87;21069;-63
2021/05/19 01:03:11;;;;;;;25.35;9.50;;;;;;;8.41;93.76;98290.61;2020590;88;21592;-63
2021/05/19 01:06:19;;;;;;;23.22;9.83;;;;;;;8.44;93.97;98289.11;2020737;88;21030;-63
2021/05/19 01:12:19;;;;;;;24.98;8.75;;;;;;;8.52;93.66;98298.67;2023797;88;21113;-63
2021/05/19 01:15:21;;;;;;;22.90;8.75;;;;;;;8.54;93.65;98294.66;2020807;88;21571;-63
2021/05/19 01:18:22;;;;;;;22.55;8.13;;;;;;;8.53;93.39;98301.64;2020775;88;21017;-64
2021/05/19 01:21:24;;;;;;;23.50;8.33;;;;;;;8.49;93.82;98301.00;2020832;88;20994;-63
2021/05/19 01:24:25;;;;;;;22.98;8.35;;;;;;;8.48;94.25;98306.33;2021058;88;21002;-63
2021/05/19 01:27:27;;;;;;;21.68;7.70;;;;;;;8.49;94.32;98301.45;2021051;88;21057;-63
2021/05/19 01:30:28;;;;;;;24.63;9.48;;;;;;;8.51;94.99;98302.22;2020666;88;21005;-63
2021/05/19 01:33:29;;;;;;;21.65;8.45;;;;;;;8.54;94.54;98303.33;2020825;88;21020;-63
2021/05/19 01:36:31;;;;;;;24.98;8.65;;;;;;;8.59;94.64;98303.91;2020699;88;21515;-63
2021/05/19 01:39:32;;;;;;;21.85;9.08;;;;;;;8.64;94.63;98301.83;2020762;88;21062;-63
2021/05/19 01:42:34;;;;;;;23.20;8.70;;;;;;;8.66;95.00;98297.81;2020973;88;21065;-63
2021/05/19 01:45:36;;;;;;;20.57;8.40;;;;;;;8.65;95.08;98298.29;2020683;88;21018;-63
2021/05/19 01:48:37;;;;;;;24.43;8.60;;;;;;;8.70;94.68;98307.16;2020770;88;21002;-63
2021/05/19 01:51:38;;;;;;;21.82;8.48;;;;;;;8.70;94.54;98307.16;2020657;88;21496;-63
2021/05/19 01:54:40;;;;;;;23.60;8.80;;;;;;;8.69;94.54;98308.08;2020816;87;21020;-63
2021/05/19 01:57:41;;;;;;;22.73;8.85;;;;;;;8.70;94.22;98299.78;2020943;88;21009;-63
2021/05/19 02:00:43;;;;;;;22.42;8.45;;;;;;;8.65;94.28;98304.83;2041093;86;21052;-63
2021/05/19 02:03:44;;;;;;;23.50;8.45;;;;;;;8.65;94.48;98306.13;2041818;87;21103;-63
2021/05/19 02:06:46;;;;;;;22.58;8.68;;;;;;;8.63;94.21;98300.63;2041701;87;21535;-63
2021/05/19 02:09:47;;;;;;;24.72;9.50;;;;;;;8.61;94.37;98306.42;2042002;87;21131;-63
2021/05/19 02:12:49;;;;;;;23.25;8.73;;;;;;;8.59;94.37;98306.97;2041645;87;21071;-63
2021/05/19 02:15:50;;;;;;;23.38;9.13;;;;;;;8.60;94.51;98305.56;2041782;87;21128;-62
2021/05/19 02:18:51;;;;;;;22.70;9.28;;;;;;;8.59;94.91;98305.21;2041772;87;21072;-62
2021/05/19 02:21:53;;;;;;;24.27;9.20;;;;;;;8.62;95.10;98305.02;2041693;87;21635;-62
2021/05/19 02:24:54;;;;;;;23.07;9.38;;;;;;;8.62;94.92;98307.63;2041803;87;21064;-63
2021/05/19 02:27:56;;;;;;;21.50;8.93;;;;;;;8.61;95.24;98302.50;2042354;87;21487;-63
2021/05/19 02:30:57;;;;;;;23.57;9.70;;;;;;;8.60;95.53;98306.87;2042026;87;21005;-63
2021/05/19 02:33:59;;;;;;;23.62;9.60;;;;;;;8.61;95.10;98308.56;2041772;87;21088;-63
2021/05/19 02:37:00;;;;;;;24.70;9.93;;;;;;;8.60;95.10;98309.96;2041666;87;20985;-63
2021/05/19 02:40:02;;;;;;;24.85;9.65;;;;;;;8.59;94.83;98310.88;2041589;87;21165;-62
2021/05/19 02:43:03;;;;;;;25.20;9.20;;;;;;;8.59;94.74;98310.44;2041924;87;21060;-63
2021/05/19 02:46:04;;;;;;;22.17;9.28;;;;;;;8.57;94.89;98307.06;2041650;87;21142;-63
2021/05/19 02:49:06;;;;;;;23.65;9.68;;;;;;;8.59;94.76;98314.81;2041749;87;21060;-63
2021/05/19 02:52:08;;;;;;;23.98;10.63;;;;;;;8.59;94.53;98309.58;2041640;87;21139;-63
2021/05/19 02:55:09;;;;;;;24.27;10.80;;;;;;;8.60;94.65;98318.63;2039318;87;21045;-63
2021/05/19 02:58:11;;;;;;;26.23;10.95;;;;;;;8.63;94.55;98320.23;2017798;88;21594;-63
2021/05/19 03:01:12;;;;;;;24.65;10.18;;;;;;;8.62;94.63;98322.45;2041617;87;21056;-63
2021/05/19 03:04:13;;;;;;;24.45;9.80;;;;;;;8.62;94.97;98325.94;2039297;87;21135;-63
2021/05/19 03:07:15;;;;;;;24.37;9.73;;;;;;;8.63;95.14;98328.93;2041440;87;21112;-63
2021/05/19 03:10:16;;;;;;;24.82;11.08;;;;;;;8.64;95.16;98336.30;2041564;87;21068;-63
2021/05/19 03:13:18;;;;;;;25.85;11.90;;;;;;;8.62;95.48;98335.53;2039287;87;21097;-63
2021/05/19 03:16:19;;;;;;;30.72;12.75;;;;;;;8.58;96.31;98337.50;2017620;88;21032;-63
2021/05/19 03:19:21;;;;;;;29.15;14.03;;;;;;;8.57;96.63;98342.83;2041586;87;21054;-63
2021/05/19 03:22:22;;;;;;;30.48;13.40;;;;;;;8.54;97.06;98338.63;2039170;87;21578;-64
2021/05/19 03:25:24;;;;;;;27.02;13.40;;;;;;;8.55;97.34;98344.23;2017693;88;21044;-63
2021/05/19 03:28:25;;;;;;;28.15;13.75;;;;;;;8.55;97.63;98345.53;2041442;87;21119;-65
2021/05/19 03:31:27;;;;;;;28.80;13.95;;;;;;;8.55;97.97;98339.45;2039175;87;21063;-65
2021/05/19 03:34:28;;;;;;;28.12;13.62;;;;;;;8.56;98.19;98341.14;2017567;88;21072;-63
2021/05/19 03:37:29;;;;;;;28.85;13.68;;;;;;;8.60;98.26;98342.64;2041582;87;21116;-63
2021/05/19 03:40:31;;;;;;;31.00;14.55;;;;;;;8.60;98.31;98347.39;2039105;87;21600;-63
2021/05/19 03:43:33;;;;;;;30.08;14.65;;;;;;;8.65;97.98;98344.05;2017733;88;21091;-64
2021/05/19 03:46:34;;;;;;;30.02;14.53;;;;;;;8.69;97.93;98343.38;2041668;87;21435;-63
2021/05/19 03:49:39;;;;;;;28.65;13.68;;;;;;;8.73;97.77;98353.19;2039396;87;21060;-63
2021/05/19 03:52:40;;;;;;;27.17;13.22;;;;;;;8.75;97.76;98352.63;1994430;88;21128;-63
2021/05/19 03:55:43;;;;;;;28.95;13.32;;;;;;;8.79;97.68;98352.81;2041868;87;21043;-63
2021/05/19 03:58:45;;;;;;;26.37;12.58;;;;;;;8.82;97.26;98360.46;2017147;87;21197;-63
2021/05/19 04:01:46;;;;;;;26.55;12.47;;;;;;;8.83;97.15;98358.23;2016177;88;21124;-63
2021/05/19 04:04:48;;;;;;;27.80;12.88;;;;;;;8.86;97.07;98361.13;2016165;88;21666;-63
2021/05/19 04:07:50;;;;;;;26.93;12.30;;;;;;;8.86;96.99;98355.42;2016290;88;21077;-63
2021/05/19 04:10:51;;;;;;;26.73;12.93;;;;;;;8.89;96.82;98359.63;2016440;88;21063;-63
2021/05/19 04:13:53;;;;;;;28.23;12.15;;;;;;;8.95;96.76;98364.47;2016184;88;21028;-63
2021/05/19 04:16:54;;;;;;;26.90;12.73;;;;;;;8.95;96.74;98367.95;2016093;88;21036;-66
2021/05/19 04:19:55;;;;;;;26.00;12.70;;;;;;;8.95;96.57;98366.64;2016261;88;21064;-63
2021/05/19 04:22:57;;;;;;;28.27;13.80;;;;;;;9.01;96.69;98366.25;2016162;88;21638;-64
2021/05/19 04:25:58;;;;;;;26.07;12.45;;;;;;;9.09;96.47;98364.94;2016115;88;21059;-63
2021/05/19 04:29:00;;;;;;;26.70;12.58;;;;;;;9.15;96.30;98365.41;2016032;88;21143;-63
2021/05/19 04:32:01;;;;;;;29.27;13.93;;;;;;;9.23;96.18;98371.45;2016177;88;21060;-63
2021/05/19 04:35:03;;;;;;;27.90;13.22;;;;;;;9.28;96.07;98375.09;2016174;88;21123;-64
2021/05/19 04:38:04;;;;;;;30.37;14.28;;;;;;;9.29;95.90;98378.08;2015997;88;21602;-63
2021/05/19 04:41:06;;;;;;;26.97;13.18;;;;;;;9.32;96.01;98378.75;2016365;88;21044;-63
2021/05/19 04:44:07;;;;;;;26.17;13.57;;;;;;;9.35;95.81;98382.47;2016349;88;21040;-63
2021/05/19 04:47:09;;;;;;;26.73;13.18;;;;;;;9.35;95.81;98382.47;2016029;88;22136;-63
2021/05/19 04:50:10;;;;;;;25.72;12.03;;;;;;;9.38;95.40;98383.20;2016351;88;21032;-64
2021/05/19 04:53:12;;;;;;;27.93;12.75;;;;;;;9.34;95.47;98388.64;2016372;88;21095;-63
2021/05/19 04:56:13;;;;;;;24.43;11.12;;;;;;;9.35;95.10;98382.92;2016013;88;21662;-63
2021/05/19 04:59:15;;;;;;;25.48;11.65;;;;;;;9.37;95.01;98387.61;2013737;88;21092;-63
2021/05/19 05:02:16;;;;;;;23.10;10.15;;;;;;;9.40;95.10;98387.41;2005120;89;21148;-63
2021/05/19 05:05:17;;;;;;;24.87;11.73;;;;;;;9.45;94.87;98392.35;2005225;89;21024;-63
2021/05/19 05:08:19;;;;;;;24.52;11.53;;;;;;;9.50;95.01;98394.22;2005328;89;21156;-63
2021/05/19 05:11:21;;;;;;;26.10;11.73;;;;;;;9.50;95.01;98394.22;1987159;90;21532;-63
2021/05/19 05:14:22;;;;;;;24.25;11.18;;;;;;;9.51;94.68;98396.74;2005273;89;21119;-63
2021/05/19 05:17:24;;;;;;;24.15;11.63;;;;;;;9.52;94.32;98393.19;2004983;89;21016;-63
2021/05/19 05:20:25;;;;;;;25.25;11.10;;;;;;;9.57;94.39;98395.52;2004888;89;21107;-63
2021/05/19 05:23:28;;;;;;;24.57;11.53;;;;;;;9.59;93.91;98397.55;2005101;89;21103;-63
2021/05/19 05:26:30;;;;;;;26.37;12.37;;;;;;;9.62;94.07;98393.42;2005091;89;21018;-63
2021/05/19 05:29:31;;;;;;;26.43;12.37;;;;;;;9.67;94.51;98395.77;1987219;90;21068;-63
2021/05/19 05:32:33;;;;;;;25.62;12.37;;;;;;;9.74;93.99;98396.20;2005229;89;21569;-64
2021/05/19 05:35:34;;;;;;;26.87;12.65;;;;;;;9.74;93.50;98397.50;2005076;89;21037;-63
2021/05/19 05:38:35;;;;;;;26.60;12.47;;;;;;;9.77;93.98;98394.69;2005149;89;21570;-63
2021/05/19 05:41:37;;;;;;;27.70;12.78;;;;;;;9.80;93.89;98401.89;2005320;89;21044;-63
2021/05/19 05:44:38;;;;;;;27.50;12.68;;;;;;;9.81;93.55;98407.95;2005090;89;21044;-66
2021/05/19 05:47:40;;;;;;;25.55;12.60;;;;;;;9.86;94.26;98405.89;2004869;89;21586;-63
2021/05/19 05:50:41;;;;;;;27.35;13.50;;;;;;;9.88;93.77;98404.86;2005076;89;21100;-63
2021/05/19 05:53:43;;;;;;;29.23;13.67;;;;;;;9.94;93.83;98414.55;2005296;89;21069;-63
2021/05/19 05:56:44;;;;;;;28.03;13.63;;;;;;;9.97;93.55;98416.97;2005213;89;21078;-63
2021/05/19 05:59:46;;;;;;;29.10;13.22;;;;;;;9.94;93.58;98415.41;2004952;88;21101;-63
2021/05/19 06:02:47;;;;;;;28.10;13.27;;;;;;;9.95;94.22;98417.07;1987115;90;21615;-63
2021/05/19 06:05:49;;;;;;;29.15;14.38;;;;;;;9.91;94.01;98427.38;2005200;89;21080;-63
2021/05/19 06:08:50;;;;;;;26.82;13.62;;;;;;;9.91;94.18;98425.23;2004898;89;21053;-63
2021/05/19 06:11:52;;;;;;;29.35;14.13;;;;;;;9.97;93.96;98420.45;2005198;89;21056;-63
2021/05/19 06:14:54;;;;;;;28.95;14.55;;;;;;;10.00;93.83;98416.31;2005053;89;21136;-63
2021/05/19 06:17:55;;;;;;;29.98;14.85;;;;;;;10.05;94.18;98419.45;2004884;89;21061;-63
2021/05/19 06:20:57;;;;;;;31.70;14.75;;;;;;;10.11;93.83;98423.94;2005159;89;21148;-64
2021/05/19 06:23:59;;;;;;;32.28;15.93;;;;;;;10.12;93.89;98428.25;2005027;89;21085;-63
2021/05/19 06:27:01;;;;;;;32.42;16.10;;;;;;;10.05;93.94;98427.80;2005025;89;21069;-64
2021/05/19 06:30:03;;;;;;;30.80;15.45;;;;;;;10.04;94.07;98431.34;2005023;89;21137;-63
2021/05/19 06:33:04;;;;;;;32.33;15.72;;;;;;;10.00;94.28;98432.52;2005086;89;21374;-63
2021/05/19 06:36:06;;;;;;;32.15;16.32;;;;;;;10.05;94.42;98423.87;2005235;89;21036;-63
2021/05/19 06:39:07;;;;;;;31.07;15.87;;;;;;;10.06;94.41;98425.56;2005128;89;21613;-63
2021/05/19 06:42:09;;;;;;;30.62;14.15;;;;;;;10.05;94.39;98426.01;2004992;89;21173;-63
2021/05/19 06:45:10;;;;;;;34.50;16.37;;;;;;;10.02;94.14;98427.52;2005400;89;21091;-63
2021/05/19 06:48:12;;;;;;;34.13;15.45;;;;;;;10.00;94.64;98429.41;2005140;89;21016;-64
2021/05/19 06:51:13;;;;;;;32.78;15.63;;;;;;;9.99;94.48;98431.66;2004998;89;21095;-63
2021/05/19 06:54:15;;;;;;;30.57;15.55;;;;;;;9.97;94.72;98430.93;2004920;89;21617;-64
2021/05/19 06:57:16;;;;;;;35.33;15.47;;;;;;;10.05;94.67;98432.56;1987185;90;21033;-63
2021/05/19 07:00:18;;;;;;;31.97;15.28;;;;;;;10.13;94.45;98432.08;2005040;88;21087;-64
2021/05/19 07:03:19;;;;;;;29.20;15.32;;;;;;;10.15;93.65;98445.08;2005068;89;21009;-63
2021/05/19 07:06:20;;;;;;;31.70;14.53;;;;;;;10.18;93.71;98444.39;2005035;89;21040;-63
2021/05/19 07:09:25;;;;;;;29.90;14.53;;;;;;;10.17;93.84;98441.42;1986992;90;21595;-64
2021/05/19 07:12:25;;;;;;;28.98;14.33;;;;;;;10.13;93.70;98447.80;2002287;88;21109;-64
2021/05/19 07:15:32;;;;;;;31.75;15.72;;;;;;;10.17;93.96;98437.94;2020950;88;21057;-63
2021/05/19 07:18:30;;;;;;;28.50;13.58;;;;;;;10.19;93.85;98446.56;2023531;88;21157;-64
2021/05/19 07:21:31;;;;;;;30.52;14.95;;;;;;;10.27;93.08;98447.36;2020842;88;21033;-63
2021/05/19 07:24:33;;;;;;;32.67;14.85;;;;;;;10.36;93.20;98445.01;2020891;87;21028;-64
2021/05/19 07:27:34;;;;;;;30.23;14.90;;;;;;;10.39;93.15;98447.42;2020719;88;21591;-63
2021/05/19 07:30:36;;;;;;;29.95;14.05;;;;;;;10.39;92.91;98447.42;2020880;87;21018;-63
2021/05/19 07:33:37;;;;;;;28.98;13.80;;;;;;;10.43;93.04;98452.45;2020757;87;21037;-64
2021/05/19 07:36:39;;;;;;;28.40;14.13;;;;;;;10.48;93.06;98449.91;2020742;88;21092;-66
2021/05/19 07:39:41;;;;;;;29.25;14.13;;;;;;;10.49;92.65;98452.07;2020945;87;21061;-69
2021/05/19 07:42:43;;;;;;;28.67;13.30;;;;;;;10.51;92.74;98460.66;2020994;88;21555;-69
2021/05/19 07:45:45;;;;;;;29.35;13.40;;;;;;;10.50;92.73;98459.84;2020740;87;21082;-65
2021/05/19 07:48:46;;;;;;;28.92;13.50;;;;;;;10.49;92.75;98462.08;2020843;88;21078;-63
2021/05/19 07:51:48;;;;;;;28.92;13.78;;;;;;;10.50;92.67;98465.53;2020856;88;21009;-75
2021/05/19 07:54:49;;;;;;;30.00;13.83;;;;;;;10.55;92.59;98467.39;2020977;87;21612;-64
2021/05/19 07:58:02;;;;;;;28.75;13.60;;;;;;;10.69;92.94;98467.78;2020936;88;21029;-64
2021/05/19 08:03:57;;;;;;;26.62;12.73;;;;;;;11.16;91.02;98459.77;2020650;88;21184;-70
2021/05/19 08:06:59;;;;;;;28.92;12.53;;;;;;;11.54;91.08;98462.80;2020727;87;21163;-65
2021/05/19 08:10:00;;;;;;;26.97;11.38;;;;;;;11.88;88.32;98465.66;2020828;87;21045;-65
2021/05/19 08:13:02;;;;;;;24.67;10.90;;;;;;;12.10;86.72;98458.38;2020755;88;21524;-63
2021/05/19 08:16:03;;;;;;;25.90;11.87;;;;;;;12.36;87.27;98467.95;2020986;87;21019;-65
2021/05/19 08:19:05;;;;;;;25.43;11.73;;;;;;;12.49;86.76;98470.02;2020951;88;21081;-64
2021/05/19 08:22:07;;;;;;;23.03;11.00;;;;;;;12.78;84.14;98463.87;2020843;87;21021;-64
2021/05/19 08:25:09;;;;;;;23.55;11.10;;;;;;;12.78;84.14;98463.87;2020726;88;21032;-64
2021/05/19 08:28:10;;;;;;;24.27;10.88;;;;;;;12.91;83.15;98471.67;2020802;88;21025;-66
2021/05/19 08:31:13;;;;;;;22.95;10.88;;;;;;;12.91;82.34;98476.11;2020877;87;21089;-64
2021/05/19 08:34:15;;;;;;;22.90;9.88;;;;;;;13.11;84.53;98470.14;2020581;88;21591;-64
2021/05/19 08:37:16;;;;;;;21.35;8.88;;;;;;;13.41;81.15;98475.83;2020927;87;21145;-65
2021/05/19 08:40:17;;;;;;;21.40;9.53;;;;;;;13.83;81.95;98464.16;2020754;88;21056;-64
2021/05/19 08:43:19;;;;;;;18.42;6.65;;;;;;;14.00;80.44;98462.80;2020813;88;21041;-64
2021/05/19 08:46:20;;;;;;;18.17;5.77;;;;;;;13.83;78.50;98477.33;2020920;87;20993;-64
2021/05/19 08:49:22;;;;;;;15.60;5.17;;;;;;;13.64;78.25;98476.16;2020783;87;21567;-66
2021/05/19 08:52:23;;;;;;;16.97;5.45;;;;;;;13.64;78.47;98505.15;2020911;87;21034;-64
2021/05/19 08:55:25;;;;;;;15.07;5.30;;;;;;;13.59;79.80;98482.75;2020798;87;21057;-64
2021/05/19 08:58:26;;;;;;;17.80;5.93;;;;;;;13.38;77.69;98492.70;2020696;87;21046;-65
2021/05/19 09:01:28;;;;;;;16.57;5.60;;;;;;;13.17;79.86;98485.95;2020886;86;21073;-64
2021/05/19 09:04:29;;;;;;;13.17;4.60;;;;;;;13.13;80.27;98491.95;2020823;88;21536;-64
2021/05/19 09:07:30;;;;;;;13.80;4.80;;;;;;;13.18;79.66;98492.41;2020921;88;20982;-64
2021/05/19 09:10:32;;;;;;;15.13;4.93;;;;;;;13.24;79.78;98502.95;2020813;88;21005;-64
2021/05/19 09:13:33;;;;;;;13.50;4.47;;;;;;;13.34;80.99;98483.33;2021078;87;21193;-64
2021/05/19 09:16:35;;;;;;;14.70;4.90;;;;;;;13.55;79.00;98478.67;2020894;88;21036;-64
2021/05/19 09:19:36;;;;;;;13.57;4.60;;;;;;;13.74;79.62;98482.03;2020753;87;21724;-65
2021/05/19 09:22:38;;;;;;;14.50;4.97;;;;;;;13.85;80.11;98494.71;2020906;88;21027;-64
2021/05/19 09:25:39;;;;;;;20.32;5.45;;;;;;;13.94;80.84;98496.27;2020744;88;21120;-64
2021/05/19 09:28:41;;;;;;;18.45;5.65;;;;;;;14.09;79.26;98484.45;2020654;88;21080;-64
2021/05/19 09:31:43;;;;;;;17.07;5.80;;;;;;;14.01;76.23;98485.09;2020910;88;21024;-64
2021/05/19 09:34:44;;;;;;;14.90;5.57;;;;;;;14.85;78.59;98486.21;2020914;87;21377;-64
2021/05/19 09:37:46;;;;;;;16.45;5.72;;;;;;;14.96;76.71;98489.28;2020662;87;21492;-64
2021/05/19 09:40:47;;;;;;;15.37;4.87;;;;;;;15.15;73.93;98498.63;2020879;88;21033;-64
2021/05/19 09:43:49;;;;;;;17.20;5.13;;;;;;;15.41;71.99;98497.73;2020768;88;21516;-65
2021/05/19 09:46:50;;;;;;;15.65;5.20;;;;;;;15.41;71.99;98497.73;2020875;88;21523;-64
2021/05/19 09:49:52;;;;;;;13.25;4.92;;;;;;;15.20;72.88;98491.62;2020880;88;21050;-65
2021/05/19 09:52:53;;;;;;;14.07;4.42;;;;;;;15.15;72.97;98484.09;2020706;87;20994;-65
2021/05/19 09:55:55;;;;;;;14.43;4.40;;;;;;;15.11;73.95;98477.89;2020885;88;21067;-65
2021/05/19 09:58:57;;;;;;;15.55;4.95;;;;;;;15.14;72.48;98487.72;2020582;88;21588;-65
2021/05/19 10:01:59;;;;;;;16.77;5.07;;;;;;;15.01;72.12;98488.39;2029333;87;21144;-65
2021/05/19 10:05:09;;;;;;;13.93;4.97;;;;;;;15.06;74.03;98498.09;2034313;87;21563;-64
2021/05/19 10:08:04;;;;;;;14.00;4.95;;;;;;;14.98;70.86;98497.41;2037353;87;21161;-64
2021/05/19 10:11:06;;;;;;;15.07;5.37;;;;;;;14.90;73.25;98484.86;2034666;87;21033;-64
2021/05/19 10:14:10;;;;;;;16.02;5.60;;;;;;;14.92;72.11;98503.21;2034422;87;21587;-64
2021/05/19 10:17:11;;;;;;;17.52;5.70;;;;;;;14.90;70.84;98493.28;2037436;87;21595;-64
2021/05/19 10:20:12;;;;;;;18.37;5.80;;;;;;;15.01;71.69;98483.97;2034695;87;21053;-65
2021/05/19 10:23:15;;;;;;;17.97;5.70;;;;;;;15.17;72.90;98483.95;2034780;87;21084;-65
2021/05/19 10:26:16;;;;;;;16.27;5.12;;;;;;;15.30;69.95;98487.71;2034519;87;21041;-65
2021/05/19 10:29:18;;;;;;;17.17;5.67;;;;;;;15.34;69.68;98475.91;2034607;87;21081;-65
2021/05/19 10:32:19;;;;;;;16.77;5.40;;;;;;;15.37;67.60;98484.42;2034623;87;21598;-65
2021/05/19 10:35:21;;;;;;;17.20;5.33;;;;;;;15.49;69.82;98476.41;2034756;87;21124;-65
2021/05/19 10:38:24;;;;;;;17.03;5.33;;;;;;;15.67;69.83;98480.56;2034588;87;21533;-66
2021/05/19 10:41:26;;;;;;;16.62;5.25;;;;;;;15.89;66.93;98472.45;2037407;87;21101;-65
2021/05/19 10:44:28;;;;;;;17.30;5.80;;;;;;;16.14;66.60;98482.16;2034720;87;21049;-65
2021/05/19 10:47:30;;;;;;;17.95;5.65;;;;;;;16.13;68.90;98468.56;2034319;87;21084;-64
2021/05/19 10:50:35;;;;;;;17.30;5.80;;;;;;;16.32;66.95;98468.23;2034763;87;21025;-64
2021/05/19 10:59:41;;;;;;;15.20;5.10;;;;;;;16.34;67.31;98467.63;2037407;87;21037;-66
2021/05/19 11:02:42;;;;;;;17.97;5.07;;;;;;;16.44;65.47;98475.08;2034577;87;21632;-65
2021/05/19 11:05:44;;;;;;;16.60;4.78;;;;;;;16.26;65.91;98469.16;2034654;87;21021;-65
2021/05/19 11:08:45;;;;;;;16.60;4.77;;;;;;;16.54;65.17;98461.34;2034610;87;21603;-66
2021/05/19 11:11:47;;;;;;;15.35;5.12;;;;;;;16.62;64.99;98467.25;2034736;87;21024;-65
2021/05/19 11:14:55;;;;;;;15.68;4.25;;;;;;;16.56;62.91;98475.77;2034294;87;21077;-65
2021/05/19 11:17:56;;;;;;;14.68;4.30;;;;;;;16.26;60.50;98472.27;2037426;87;21006;-66
2021/05/19 11:20:56;;;;;;;14.33;4.10;;;;;;;16.16;62.13;98468.32;2037414;87;21140;-66
2021/05/19 11:23:57;;;;;;;15.17;4.27;;;;;;;16.26;61.64;98470.95;2034719;87;20977;-65
2021/05/19 11:27:00;;;;;;;14.85;4.10;;;;;;;16.92;63.56;98458.81;2034386;87;21635;-65
2021/05/19 11:30:04;;;;;;;12.80;3.72;;;;;;;17.94;61.93;98459.80;2034274;87;21046;-67
2021/05/19 11:33:05;;;;;;;14.47;4.20;;;;;;;18.59;59.80;98456.94;2034386;87;21116;-66
2021/05/19 11:36:07;;;;;;;12.35;3.90;;;;;;;18.90;57.15;98447.72;2034379;87;21017;-65
2021/05/19 11:39:08;;;;;;;13.68;4.15;;;;;;;18.72;57.04;98443.73;2034487;87;21108;-66
2021/05/19 11:42:11;;;;;;;;;;;;;;;18.81;58.29;98446.80;2036659;87;21144;-68
2021/05/19 11:45:12;;;;;;;12.47;3.47;;;;;;;18.93;55.41;98442.09;2034626;88;20227;-67
2021/05/19 11:48:14;;;;;;;11.80;3.77;;;;;;;19.20;53.82;98437.09;2034343;87;21628;-66
2021/05/19 11:51:15;;;;;;;9.63;3.50;;;;;;;18.74;55.13;98435.12;2034456;87;21100;-66
2021/05/19 11:54:17;;;;;;;8.43;3.00;;;;;;;17.95;54.80;98438.42;2034393;87;21005;-66
2021/05/19 11:57:18;;;;;;;13.48;2.87;;;;;;;17.38;53.71;98443.04;2034441;87;21100;-66
2021/05/19 12:00:20;;;;;;;10.90;2.80;;;;;;;17.05;54.72;98432.86;2034471;87;21057;-66
2021/05/19 12:03:21;;;;;;;7.10;2.47;;;;;;;16.79;56.20;98438.75;2040955;87;21715;-65
2021/05/19 12:06:23;;;;;;;12.13;2.98;;;;;;;16.52;56.12;98444.78;2041797;87;21036;-66
2021/05/19 12:09:24;;;;;;;9.98;3.02;;;;;;;16.30;55.68;98444.56;2041773;87;21040;-66
2021/05/19 12:12:26;;;;;;;12.13;3.25;;;;;;;16.03;56.15;98459.33;2041755;87;21110;-66
2021/05/19 12:15:27;;;;;;;10.07;3.20;;;;;;;15.78;56.79;98449.22;2041995;87;21012;-65
2021/05/19 12:18:29;;;;;;;9.57;2.73;;;;;;;15.80;54.86;98462.66;2041794;87;21835;-65
2021/05/19 12:21:30;;;;;;;9.40;2.95;;;;;;;15.76;55.85;98458.61;2041881;87;21025;-65
2021/05/19 12:24:32;;;;;;;10.05;2.72;;;;;;;15.79;55.68;98453.08;2041781;87;21072;-65
2021/05/19 12:27:34;;;;;;;10.95;3.10;;;;;;;15.88;56.00;98456.72;2041736;87;21088;-65
2021/05/19 12:30:36;;;;;;;11.30;3.10;;;;;;;16.03;55.44;98457.15;2041958;87;21155;-65
2021/05/19 12:33:37;;;;;;;7.63;2.80;;;;;;;16.93;55.89;98452.54;2041918;87;21697;-65
2021/05/19 12:36:41;;;;;;;8.35;2.65;;;;;;;17.67;53.32;98438.94;2041748;87;21016;-65
2021/05/19 12:39:42;;;;;;;9.15;2.83;;;;;;;18.38;51.16;98437.34;2041700;87;21056;-65
2021/05/19 12:42:44;;;;;;;7.47;2.60;;;;;;;18.84;51.30;98438.02;2041992;87;21116;-65
2021/05/19 12:45:47;;;;;;;5.90;2.50;;;;;;;19.18;48.42;98421.81;2041852;87;21538;-67
2021/05/19 12:48:49;;;;;;;8.88;2.55;;;;;;;19.07;47.47;98431.39;2019439;87;21603;-66
2021/05/19 12:51:50;;;;;;;6.35;2.45;;;;;;;18.74;49.47;98431.97;2041866;87;21040;-67
2021/05/19 12:54:52;;;;;;;7.10;2.37;;;;;;;19.07;49.46;98423.41;2041749;87;21056;-65
2021/05/19 12:57:54;;;;;;;10.53;2.47;;;;;;;18.97;47.90;98427.50;2041697;87;21111;-65
2021/05/19 13:00:55;;;;;;;6.78;2.22;;;;;;;18.51;47.23;98435.62;2041621;87;21139;-66
2021/05/19 13:04:01;;;;;;;8.90;2.15;;;;;;;18.05;48.92;98425.09;2019384;87;21555;-66
2021/05/19 13:07:02;;;;;;;7.00;2.52;;;;;;;17.85;48.14;98440.28;2019509;87;21032;-69
2021/05/19 13:10:03;;;;;;;9.23;3.20;;;;;;;17.92;48.73;98430.77;2041982;87;21036;-66
2021/05/19 13:16:11;;;;;;;8.03;2.70;;;;;;;18.38;47.70;98443.15;2019445;87;21056;-67
2021/05/19 13:19:11;;;;;;;5.37;2.40;;;;;;;18.11;46.09;98440.40;2019627;87;21044;-67
2021/05/19 13:22:13;;;;;;;6.08;2.10;;;;;;;17.88;46.36;98442.62;2041938;87;21067;-70
2021/05/19 13:25:15;;;;;;;8.30;2.37;;;;;;;17.73;49.17;98440.98;2041811;87;21080;-66
2021/05/19 13:28:16;;;;;;;5.72;2.05;;;;;;;18.13;48.79;98425.18;2041827;87;21166;-66
2021/05/19 13:31:18;;;;;;;8.58;2.50;;;;;;;18.86;49.96;98438.73;2041800;87;21523;-65
2021/05/19 13:37:23;;;;;;;6.72;2.05;;;;;;;19.39;44.01;98428.05;2019659;87;21078;-67
2021/05/19 13:40:24;;;;;;;6.50;2.22;;;;;;;18.52;45.17;98446.59;2041799;87;21052;-66
2021/05/19 13:43:26;;;;;;;5.35;2.22;;;;;;;18.06;45.58;98445.81;2042015;87;21036;-66
2021/05/19 13:46:28;;;;;;;6.87;2.15;;;;;;;17.53;45.84;98452.66;2041652;87;21551;-66
2021/05/19 13:49:31;;;;;;;5.75;2.10;;;;;;;17.17;46.59;98445.91;2041868;87;21143;-66
2021/05/19 13:52:33;;;;;;;6.75;2.20;;;;;;;16.95;48.46;98443.95;2041662;87;21045;-65
2021/05/19 13:55:34;;;;;;;6.35;2.17;;;;;;;16.94;47.95;98448.92;2041949;87;21099;-66
2021/05/19 13:58:36;;;;;;;9.68;2.72;;;;;;;17.59;47.62;98434.35;2041747;87;21141;-66
2021/05/19 14:01:37;;;;;;;8.83;1.95;;;;;;;18.38;46.62;98436.52;2041697;87;21091;-69
2021/05/19 14:04:39;;;;;;;6.95;2.05;;;;;;;18.74;44.23;98450.56;2041916;87;21093;-65
2021/05/19 14:07:40;;;;;;;6.65;2.40;;;;;;;18.84;43.50;98441.17;2041768;87;21539;-66
2021/05/19 14:10:48;;;;;;;5.53;1.80;;;;;;;18.95;45.02;98431.66;2041899;87;21119;-66
2021/05/19 14:20:13;;;;;;;4.95;1.72;;;;;;;18.82;41.35;98436.02;2019818;87;21088;-66
2021/05/19 14:26:51;;;;;;;7.40;2.25;;;;;;;19.37;41.38;98436.18;2019690;87;21040;-66
2021/05/19 14:29:02;;;;;;;6.25;2.17;;;;;;;19.37;39.68;98429.53;2019414;87;21052;-66
2021/05/19 14:32:03;;;;;;;6.42;1.85;;;;;;;19.35;39.96;98432.86;2041758;87;21567;-66
2021/05/19 14:35:08;;;;;;;7.30;1.92;;;;;;;19.48;41.18;98423.59;2041609;87;21159;-66